sensor_id;sensor_type;location;lat;lon;timestamp;pressure;altitude;pressure_sealevel;temperature;humidity
35878;BME280;21982;49.804;24.072;2023-05-16T00:01:39;96732.56;;;15.11;70.80
35878;BME280;21982;49.804;24.072;2023-05-16T00:04:06;96724.06;;;15.02;70.90
35878;BME280;21982;49.804;24.072;2023-05-16T00:06:32;96699.97;;;14.86;70.84
35878;BME280;21982;49.804;24.072;2023-05-16T00:08:58;96757.25;;;15.18;70.87
35878;BME280;21982;49.804;24.072;2023-05-16T00:11:24;96751.13;;;15.18;70.84
35878;BME280;21982;49.804;24.072;2023-05-16T00:13:50;96755.06;;;15.15;70.75
35878;BME280;21982;49.804;24.072;2023-05-16T00:16:15;96707.69;;;14.75;71.22
35878;BME280;21982;49.804;24.072;2023-05-16T00:18:41;96764.56;;;15.11;71.11
35878;BME280;21982;49.804;24.072;2023-05-16T00:21:09;96770.34;;;15.08;71.36
35878;BME280;21982;49.804;24.072;2023-05-16T00:23:35;96743.78;;;14.90;71.43
35878;BME280;21982;49.804;24.072;2023-05-16T00:26:00;96730.53;;;14.83;71.73
35878;BME280;21982;49.804;24.072;2023-05-16T00:28:26;96767.09;;;15.06;71.63
35878;BME280;21982;49.804;24.072;2023-05-16T00:30:51;96762.22;;;15.03;71.74
35878;BME280;21982;49.804;24.072;2023-05-16T00:33:16;96761.63;;;15.01;71.68
35878;BME280;21982;49.804;24.072;2023-05-16T00:35:42;96704.03;;;14.58;71.61
35878;BME280;21982;49.804;24.072;2023-05-16T00:38:07;96765.34;;;15.00;71.74
35878;BME280;21982;49.804;24.072;2023-05-16T00:40:32;96768.47;;;14.97;71.84
35878;BME280;21982;49.804;24.072;2023-05-16T00:42:58;96768.47;;;14.97;71.80
35878;BME280;21982;49.804;24.072;2023-05-16T00:45:23;96727.63;;;14.73;71.88
35878;BME280;21982;49.804;24.072;2023-05-16T00:47:49;96721.25;;;14.74;71.97
35878;BME280;21982;49.804;24.072;2023-05-16T00:50:16;96715.69;;;14.75;71.91
35878;BME280;21982;49.804;24.072;2023-05-16T00:52:41;96702.47;;;14.69;71.67
35878;BME280;21982;49.804;24.072;2023-05-16T00:55:07;96710.84;;;14.84;71.97
35878;BME280;21982;49.804;24.072;2023-05-16T00:57:37;96738.69;;;15.12;71.25
35878;BME280;21982;49.804;24.072;2023-05-16T01:00:05;96760.06;;;15.23;71.40
35878;BME280;21982;49.804;24.072;2023-05-16T01:02:32;96701.56;;;14.75;71.33
35878;BME280;21982;49.804;24.072;2023-05-16T01:04:59;96747.50;;;15.12;71.59
35878;BME280;21982;49.804;24.072;2023-05-16T01:07:26;96766.88;;;15.19;71.75
35878;BME280;21982;49.804;24.072;2023-05-16T01:09:51;96765.25;;;15.18;71.77
35878;BME280;21982;49.804;24.072;2023-05-16T01:12:40;96749.59;;;15.10;71.35
35878;BME280;21982;49.804;24.072;2023-05-16T01:17:59;96780.47;;;15.18;70.96
35878;BME280;21982;49.804;24.072;2023-05-16T01:20:41;96782.91;;;15.19;71.07
35878;BME280;21982;49.804;24.072;2023-05-16T01:26:13;96791.34;;;15.28;70.64
35878;BME280;21982;49.804;24.072;2023-05-16T01:28:40;96766.88;;;15.07;70.98
35878;BME280;21982;49.804;24.072;2023-05-16T01:31:05;96761.16;;;15.04;71.17
35878;BME280;21982;49.804;24.072;2023-05-16T01:33:31;96753.63;;;15.01;70.92
35878;BME280;21982;49.804;24.072;2023-05-16T01:36:05;96793.78;;;15.29;70.59
35878;BME280;21982;49.804;24.072;2023-05-16T01:38:52;96758.88;;;15.07;70.55
35878;BME280;21982;49.804;24.072;2023-05-16T01:41:27;96746.91;;;14.98;70.82
35878;BME280;21982;49.804;24.072;2023-05-16T01:43:59;96774.19;;;15.12;71.07
35878;BME280;21982;49.804;24.072;2023-05-16T01:46:30;96767.41;;;14.98;71.22
35878;BME280;21982;49.804;24.072;2023-05-16T01:49:07;96773.56;;;14.98;70.99
35878;BME280;21982;49.804;24.072;2023-05-16T01:51:42;96769.50;;;14.84;71.09
35878;BME280;21982;49.804;24.072;2023-05-16T01:54:11;96768.69;;;14.84;71.29
35878;BME280;21982;49.804;24.072;2023-05-16T01:56:38;96785.03;;;14.87;71.36
35878;BME280;21982;49.804;24.072;2023-05-16T01:59:06;96816.59;;;15.02;71.20
35878;BME280;21982;49.804;24.072;2023-05-16T02:01:33;96803.91;;;14.86;71.67
35878;BME280;21982;49.804;24.072;2023-05-16T02:03:58;96830.56;;;14.86;71.44
35878;BME280;21982;49.804;24.072;2023-05-16T02:06:24;96802.91;;;14.68;71.98
35878;BME280;21982;49.804;24.072;2023-05-16T02:08:50;96785.94;;;14.51;72.28
35878;BME280;21982;49.804;24.072;2023-05-16T02:11:16;96806.69;;;14.61;72.14
35878;BME280;21982;49.804;24.072;2023-05-16T02:13:42;96818.09;;;14.68;72.04
35878;BME280;21982;49.804;24.072;2023-05-16T02:16:09;96817.03;;;14.69;72.27
35878;BME280;21982;49.804;24.072;2023-05-16T02:18:35;96767.06;;;14.34;72.34
35878;BME280;21982;49.804;24.072;2023-05-16T02:21:00;96820.16;;;14.66;72.63
35878;BME280;21982;49.804;24.072;2023-05-16T02:23:26;96803.09;;;14.55;72.30
35878;BME280;21982;49.804;24.072;2023-05-16T02:25:51;96797.78;;;14.55;72.33
35878;BME280;21982;49.804;24.072;2023-05-16T02:28:16;96746.50;;;14.23;72.71
35878;BME280;21982;49.804;24.072;2023-05-16T02:30:42;96793.34;;;14.49;72.67
35878;BME280;21982;49.804;24.072;2023-05-16T02:33:07;96790.91;;;14.48;72.32
35878;BME280;21982;49.804;24.072;2023-05-16T02:35:32;96796.22;;;14.48;72.53
35878;BME280;21982;49.804;24.072;2023-05-16T02:37:58;96797.78;;;14.55;72.75
35878;BME280;21982;49.804;24.072;2023-05-16T02:40:24;96808.44;;;14.55;72.57
35878;BME280;21982;49.804;24.072;2023-05-16T02:42:50;96780.16;;;14.36;72.88
35878;BME280;21982;49.804;24.072;2023-05-16T02:45:16;96819.09;;;14.55;72.60
35878;BME280;21982;49.804;24.072;2023-05-16T02:47:41;96766.66;;;14.19;72.62
35878;BME280;21982;49.804;24.072;2023-05-16T02:50:07;96758.75;;;14.13;73.05
35878;BME280;21982;49.804;24.072;2023-05-16T02:52:33;96825.47;;;14.54;73.17
35878;BME280;21982;49.804;24.072;2023-05-16T02:54:59;96775.56;;;14.25;72.63
35878;BME280;21982;49.804;24.072;2023-05-16T02:57:24;96828.13;;;14.54;72.95
35878;BME280;21982;49.804;24.072;2023-05-16T02:59:49;96824.13;;;14.45;72.95
35878;BME280;21982;49.804;24.072;2023-05-16T03:02:15;96816.59;;;14.42;73.01
35878;BME280;21982;49.804;24.072;2023-05-16T03:04:40;96799.53;;;14.25;73.51
35878;BME280;21982;49.804;24.072;2023-05-16T03:07:06;96847.59;;;14.55;73.12
35878;BME280;21982;49.804;24.072;2023-05-16T03:09:31;96733.81;;;13.89;72.96
35878;BME280;21982;49.804;24.072;2023-05-16T03:11:57;96848.97;;;14.57;73.31
35878;BME280;21982;49.804;24.072;2023-05-16T03:14:23;96831.69;;;14.48;73.09
35878;BME280;21982;49.804;24.072;2023-05-16T03:16:50;96812.72;;;14.38;73.33
35878;BME280;21982;49.804;24.072;2023-05-16T03:19:16;96857.09;;;14.62;73.43
35878;BME280;21982;49.804;24.072;2023-05-16T03:21:41;96853.41;;;14.63;73.26
35878;BME280;21982;49.804;24.072;2023-05-16T03:24:07;96827.38;;;14.47;73.08
35878;BME280;21982;49.804;24.072;2023-05-16T03:26:33;96852.94;;;14.66;73.40
35878;BME280;21982;49.804;24.072;2023-05-16T03:28:59;96841.84;;;14.69;72.86
35878;BME280;21982;49.804;24.072;2023-05-16T03:31:24;96844.28;;;14.71;73.00
35878;BME280;21982;49.804;24.072;2023-05-16T03:33:50;96850.00;;;14.74;72.80
35878;BME280;21982;49.804;24.072;2023-05-16T03:36:15;96787.69;;;14.39;72.76
35878;BME280;21982;49.804;24.072;2023-05-16T03:38:41;96790.66;;;14.31;72.74
35878;BME280;21982;49.804;24.072;2023-05-16T03:41:06;96853.03;;;14.78;72.89
35878;BME280;21982;49.804;24.072;2023-05-16T03:43:31;96851.75;;;14.81;73.18
35878;BME280;21982;49.804;24.072;2023-05-16T03:45:57;96841.31;;;14.79;72.89
35878;BME280;21982;49.804;24.072;2023-05-16T03:48:22;96773.34;;;14.40;72.83
35878;BME280;21982;49.804;24.072;2023-05-16T03:50:48;96856.06;;;14.93;72.97
35878;BME280;21982;49.804;24.072;2023-05-16T03:53:15;96872.66;;;14.95;72.77
35878;BME280;21982;49.804;24.072;2023-05-16T03:55:42;96814.03;;;14.65;72.99
35878;BME280;21982;49.804;24.072;2023-05-16T03:58:08;96856.44;;;14.97;72.75
35878;BME280;21982;49.804;24.072;2023-05-16T04:00:33;96874.19;;;15.03;72.59
35878;BME280;21982;49.804;24.072;2023-05-16T04:03:01;96830.00;;;14.95;72.31
35878;BME280;21982;49.804;24.072;2023-05-16T04:05:26;96886.84;;;15.37;72.28
35878;BME280;21982;49.804;24.072;2023-05-16T04:07:52;96871.88;;;15.36;71.92
35878;BME280;21982;49.804;24.072;2023-05-16T04:10:17;96854.47;;;15.34;71.81
35878;BME280;21982;49.804;24.072;2023-05-16T04:12:43;96884.94;;;15.68;71.24
35878;BME280;21982;49.804;24.072;2023-05-16T04:15:09;96891.81;;;15.87;71.19
35878;BME280;21982;49.804;24.072;2023-05-16T04:17:35;96867.22;;;15.85;71.03
35878;BME280;21982;49.804;24.072;2023-05-16T04:20:01;96893.44;;;16.12;70.67
35878;BME280;21982;49.804;24.072;2023-05-16T04:22:27;96862.78;;;16.02;70.41
35878;BME280;21982;49.804;24.072;2023-05-16T04:24:52;96865.09;;;16.11;70.38
35878;BME280;21982;49.804;24.072;2023-05-16T04:27:18;96880.06;;;16.35;70.16
35878;BME280;21982;49.804;24.072;2023-05-16T04:29:43;96807.75;;;16.01;69.56
35878;BME280;21982;49.804;24.072;2023-05-16T04:32:08;96899.06;;;16.73;69.13
35878;BME280;21982;49.804;24.072;2023-05-16T04:34:35;96892.88;;;16.85;68.62
35878;BME280;21982;49.804;24.072;2023-05-16T04:37:05;96879.25;;;16.98;68.38
35878;BME280;21982;49.804;24.072;2023-05-16T04:39:31;96854.03;;;16.94;67.87
35878;BME280;21982;49.804;24.072;2023-05-16T04:41:57;96907.06;;;17.42;67.09
35878;BME280;21982;49.804;24.072;2023-05-16T04:44:24;96897.81;;;17.50;66.59
35878;BME280;21982;49.804;24.072;2023-05-16T04:46:50;96899.16;;;17.64;66.21
35878;BME280;21982;49.804;24.072;2023-05-16T04:49:16;96880.91;;;17.61;66.04
35878;BME280;21982;49.804;24.072;2023-05-16T04:51:42;96921.31;;;18.09;65.27
35878;BME280;21982;49.804;24.072;2023-05-16T04:54:07;96876.44;;;17.83;65.06
35878;BME280;21982;49.804;24.072;2023-05-16T04:56:33;96831.63;;;17.45;65.00
35878;BME280;21982;49.804;24.072;2023-05-16T04:58:58;96854.44;;;17.48;64.95
35878;BME280;21982;49.804;24.072;2023-05-16T05:01:23;96889.16;;;17.59;64.93
35878;BME280;21982;49.804;24.072;2023-05-16T05:03:49;96919.38;;;17.71;64.91
35878;BME280;21982;49.804;24.072;2023-05-16T05:06:14;96899.25;;;17.40;65.20
35878;BME280;21982;49.804;24.072;2023-05-16T05:11:15;96925.84;;;17.59;65.04
35878;BME280;21982;49.804;24.072;2023-05-16T05:13:41;96884.44;;;17.50;64.75
35878;BME280;21982;49.804;24.072;2023-05-16T05:16:06;96908.84;;;17.65;64.25
35878;BME280;21982;49.804;24.072;2023-05-16T05:18:35;96921.81;;;17.73;64.30
35878;BME280;21982;49.804;24.072;2023-05-16T05:21:01;96938.06;;;17.83;64.11
35878;BME280;21982;49.804;24.072;2023-05-16T05:23:28;96916.28;;;17.63;64.22
35878;BME280;21982;49.804;24.072;2023-05-16T05:25:54;96885.91;;;17.57;64.05
35878;BME280;21982;49.804;24.072;2023-05-16T05:28:19;96953.34;;;17.99;63.79
35878;BME280;21982;49.804;24.072;2023-05-16T05:30:48;96920.34;;;17.82;63.69
35878;BME280;21982;49.804;24.072;2023-05-16T05:33:16;96932.75;;;18.05;63.55
35878;BME280;21982;49.804;24.072;2023-05-16T05:35:42;96909.53;;;18.11;63.04
35878;BME280;21982;49.804;24.072;2023-05-16T05:38:08;96867.84;;;17.98;62.44
35878;BME280;21982;49.804;24.072;2023-05-16T05:40:33;96937.09;;;18.45;62.04
35878;BME280;21982;49.804;24.072;2023-05-16T05:42:58;96913.72;;;18.40;61.99
35878;BME280;21982;49.804;24.072;2023-05-16T05:45:24;96921.09;;;18.50;61.18
35878;BME280;21982;49.804;24.072;2023-05-16T05:47:49;96925.97;;;18.69;61.24
35878;BME280;21982;49.804;24.072;2023-05-16T05:50:15;96904.00;;;18.72;61.02
35878;BME280;21982;49.804;24.072;2023-05-16T05:52:41;96927.25;;;19.11;60.36
35878;BME280;21982;49.804;24.072;2023-05-16T05:55:06;96893.03;;;19.23;58.93
35878;BME280;21982;49.804;24.072;2023-05-16T05:57:32;96934.31;;;19.43;58.52
35878;BME280;21982;49.804;24.072;2023-05-16T05:59:57;96900.97;;;19.13;58.21
35878;BME280;21982;49.804;24.072;2023-05-16T06:02:23;96967.25;;;19.56;58.08
35878;BME280;21982;49.804;24.072;2023-05-16T06:04:48;96907.31;;;19.01;57.57
35878;BME280;21982;49.804;24.072;2023-05-16T06:07:14;96949.16;;;19.24;57.56
35878;BME280;21982;49.804;24.072;2023-05-16T06:09:41;96929.50;;;19.19;57.08
35878;BME280;21982;49.804;24.072;2023-05-16T06:12:08;96951.53;;;19.48;56.82
35878;BME280;21982;49.804;24.072;2023-05-16T06:14:33;96969.53;;;19.69;56.56
35878;BME280;21982;49.804;24.072;2023-05-16T06:16:58;96964.22;;;19.74;56.10
35878;BME280;21982;49.804;24.072;2023-05-16T06:19:24;96968.28;;;20.08;55.70
35878;BME280;21982;49.804;24.072;2023-05-16T06:24:25;96847.84;;;19.41;54.89
35878;BME280;21982;49.804;24.072;2023-05-16T06:26:50;96966.16;;;20.16;54.55
35878;BME280;21982;49.804;24.072;2023-05-16T06:29:16;96936.84;;;20.14;53.88
35878;BME280;21982;49.804;24.072;2023-05-16T06:31:42;96971.69;;;20.68;52.97
35878;BME280;21982;49.804;24.072;2023-05-16T06:34:07;96988.38;;;20.70;52.73
35878;BME280;21982;49.804;24.072;2023-05-16T06:36:33;96968.69;;;20.64;52.41
35878;BME280;21982;49.804;24.072;2023-05-16T06:38:58;96991.53;;;21.09;51.72
35878;BME280;21982;49.804;24.072;2023-05-16T06:41:23;96997.97;;;21.70;50.40
35878;BME280;21982;49.804;24.072;2023-05-16T06:43:50;97008.56;;;22.08;49.37
35878;BME280;21982;49.804;24.072;2023-05-16T06:46:16;96971.84;;;21.86;48.34
35878;BME280;21982;49.804;24.072;2023-05-16T06:48:42;97002.03;;;21.93;48.98
35878;BME280;21982;49.804;24.072;2023-05-16T06:51:07;96973.75;;;21.81;48.91
35878;BME280;21982;49.804;24.072;2023-05-16T06:53:34;96990.50;;;22.08;48.80
35878;BME280;21982;49.804;24.072;2023-05-16T06:55:59;96977.81;;;22.29;48.75
35878;BME280;21982;49.804;24.072;2023-05-16T06:58:24;96976.16;;;22.68;48.06
35878;BME280;21982;49.804;24.072;2023-05-16T07:00:50;96961.69;;;23.24;46.77
35878;BME280;21982;49.804;24.072;2023-05-16T07:03:15;97001.75;;;23.66;46.03
35878;BME280;21982;49.804;24.072;2023-05-16T07:05:41;96974.63;;;23.32;46.21
35878;BME280;21982;49.804;24.072;2023-05-16T07:08:08;97000.81;;;23.36;46.22
35878;BME280;21982;49.804;24.072;2023-05-16T07:10:34;97008.69;;;23.23;46.37
35878;BME280;21982;49.804;24.072;2023-05-16T07:13:00;96972.59;;;22.98;46.37
35878;BME280;21982;49.804;24.072;2023-05-16T07:15:26;97010.56;;;23.22;46.19
35878;BME280;21982;49.804;24.072;2023-05-16T07:17:51;97005.50;;;23.11;46.32
35878;BME280;21982;49.804;24.072;2023-05-16T07:20:16;96985.81;;;23.05;46.14
35878;BME280;21982;49.804;24.072;2023-05-16T07:22:42;97007.75;;;22.83;46.14
35878;BME280;21982;49.804;24.072;2023-05-16T07:25:08;96991.56;;;22.48;46.48
35878;BME280;21982;49.804;24.072;2023-05-16T07:27:40;96995.06;;;22.23;47.18
35878;BME280;21982;49.804;24.072;2023-05-16T07:30:07;96970.50;;;21.79;47.40
35878;BME280;21982;49.804;24.072;2023-05-16T07:32:33;97016.59;;;21.82;47.84
35878;BME280;21982;49.804;24.072;2023-05-16T07:34:59;97006.53;;;21.57;48.38
35878;BME280;21982;49.804;24.072;2023-05-16T07:37:25;96965.72;;;21.18;48.40
35878;BME280;21982;49.804;24.072;2023-05-16T07:39:50;97010.03;;;21.43;48.67
35878;BME280;21982;49.804;24.072;2023-05-16T07:42:15;96962.72;;;21.15;48.54
35878;BME280;21982;49.804;24.072;2023-05-16T07:44:41;97014.28;;;21.33;48.54
35878;BME280;21982;49.804;24.072;2023-05-16T07:47:06;96959.66;;;20.86;48.70
35878;BME280;21982;49.804;24.072;2023-05-16T07:49:31;96979.13;;;21.03;48.94
35878;BME280;21982;49.804;24.072;2023-05-16T07:51:57;97029.16;;;21.56;48.68
35878;BME280;21982;49.804;24.072;2023-05-16T07:54:22;97022.31;;;22.01;47.91
35878;BME280;21982;49.804;24.072;2023-05-16T07:56:48;97027.44;;;22.33;47.35
35878;BME280;21982;49.804;24.072;2023-05-16T07:59:13;97022.59;;;22.30;47.31
35878;BME280;21982;49.804;24.072;2023-05-16T08:01:39;97003.72;;;22.25;47.22
35878;BME280;21982;49.804;24.072;2023-05-16T08:04:06;97004.50;;;22.25;47.42
35878;BME280;21982;49.804;24.072;2023-05-16T08:06:31;97006.94;;;22.27;47.29
35878;BME280;21982;49.804;24.072;2023-05-16T08:08:56;97027.44;;;22.53;47.09
35878;BME280;21982;49.804;24.072;2023-05-16T08:11:22;97016.63;;;22.73;46.51
35878;BME280;21982;49.804;24.072;2023-05-16T08:13:48;96995.31;;;22.62;46.17
35878;BME280;21982;49.804;24.072;2023-05-16T08:16:13;97001.81;;;22.81;46.26
35878;BME280;21982;49.804;24.072;2023-05-16T08:18:39;96949.44;;;22.57;45.95
35878;BME280;21982;49.804;24.072;2023-05-16T08:21:04;96935.13;;;22.66;45.30
35878;BME280;21982;49.804;24.072;2023-05-16T08:23:30;96974.22;;;22.89;44.91
35878;BME280;21982;49.804;24.072;2023-05-16T08:25:55;97027.41;;;23.04;44.78
35878;BME280;21982;49.804;24.072;2023-05-16T08:28:21;97023.09;;;22.98;45.23
35878;BME280;21982;49.804;24.072;2023-05-16T08:30:46;97021.19;;;23.03;45.10
35878;BME280;21982;49.804;24.072;2023-05-16T08:33:12;97020.81;;;23.30;45.08
35878;BME280;21982;49.804;24.072;2023-05-16T08:35:41;97029.94;;;23.50;44.47
35878;BME280;21982;49.804;24.072;2023-05-16T08:38:07;97033.16;;;23.57;44.33
35878;BME280;21982;49.804;24.072;2023-05-16T08:40:32;96999.91;;;23.61;43.99
35878;BME280;21982;49.804;24.072;2023-05-16T08:42:58;97028.56;;;24.06;43.71
35878;BME280;21982;49.804;24.072;2023-05-16T08:45:23;97013.63;;;24.14;43.08
35878;BME280;21982;49.804;24.072;2023-05-16T08:47:53;97018.09;;;24.34;42.89
35878;BME280;21982;49.804;24.072;2023-05-16T08:50:19;97028.25;;;24.52;43.02
35878;BME280;21982;49.804;24.072;2023-05-16T08:52:46;96993.78;;;24.29;42.84
35878;BME280;21982;49.804;24.072;2023-05-16T08:55:14;96974.84;;;24.29;42.47
35878;BME280;21982;49.804;24.072;2023-05-16T08:57:40;97040.97;;;25.33;41.57
35878;BME280;21982;49.804;24.072;2023-05-16T09:00:07;97045.09;;;25.97;40.38
35878;BME280;21982;49.804;24.072;2023-05-16T09:02:42;97041.63;;;26.29;40.25
35878;BME280;21982;49.804;24.072;2023-05-16T09:05:11;96986.53;;;26.29;39.75
35878;BME280;21982;49.804;24.072;2023-05-16T09:07:36;97049.75;;;26.99;39.17
35878;BME280;21982;49.804;24.072;2023-05-16T09:10:03;97036.88;;;27.19;38.17
35878;BME280;21982;49.804;24.072;2023-05-16T09:12:31;97043.91;;;27.47;38.52
35878;BME280;21982;49.804;24.072;2023-05-16T09:14:57;97047.94;;;27.50;37.56
35878;BME280;21982;49.804;24.072;2023-05-16T09:17:22;97027.91;;;27.18;37.90
35878;BME280;21982;49.804;24.072;2023-05-16T09:19:47;97040.72;;;26.85;38.08
35878;BME280;21982;49.804;24.072;2023-05-16T09:22:17;96993.03;;;25.95;38.12
35878;BME280;21982;49.804;24.072;2023-05-16T09:24:44;97041.22;;;25.61;38.65
35878;BME280;21982;49.804;24.072;2023-05-16T09:27:13;97044.34;;;25.25;39.00
35878;BME280;21982;49.804;24.072;2023-05-16T09:29:40;97047.34;;;24.95;39.25
35878;BME280;21982;49.804;24.072;2023-05-16T09:32:13;97050.13;;;24.90;40.02
35878;BME280;21982;49.804;24.072;2023-05-16T09:34:47;97037.84;;;24.68;40.34
35878;BME280;21982;49.804;24.072;2023-05-16T09:37:16;97045.88;;;24.50;40.24
35878;BME280;21982;49.804;24.072;2023-05-16T09:39:47;97051.69;;;24.62;40.20
35878;BME280;21982;49.804;24.072;2023-05-16T09:42:14;97021.72;;;24.58;40.26
35878;BME280;21982;49.804;24.072;2023-05-16T09:44:40;97046.34;;;24.86;40.10
35878;BME280;21982;49.804;24.072;2023-05-16T09:47:10;97043.59;;;24.91;39.93
35878;BME280;21982;49.804;24.072;2023-05-16T09:49:36;97035.75;;;24.89;40.22
35878;BME280;21982;49.804;24.072;2023-05-16T09:52:02;97035.00;;;25.13;39.96
35878;BME280;21982;49.804;24.072;2023-05-16T09:54:30;97045.25;;;25.39;39.78
35878;BME280;21982;49.804;24.072;2023-05-16T09:56:56;97056.91;;;25.16;39.73
35878;BME280;21982;49.804;24.072;2023-05-16T09:59:22;97060.63;;;24.96;40.03
35878;BME280;21982;49.804;24.072;2023-05-16T10:01:49;97057.56;;;25.03;39.84
35878;BME280;21982;49.804;24.072;2023-05-16T10:04:15;97005.22;;;24.84;39.56
35878;BME280;21982;49.804;24.072;2023-05-16T10:06:41;96992.44;;;24.89;39.65
35878;BME280;21982;49.804;24.072;2023-05-16T10:09:10;97050.84;;;25.48;39.51
35878;BME280;21982;49.804;24.072;2023-05-16T10:11:39;97057.13;;;25.44;39.62
35878;BME280;21982;49.804;24.072;2023-05-16T10:14:06;96969.81;;;24.75;39.72
35878;BME280;21982;49.804;24.072;2023-05-16T10:16:46;96958.03;;;24.61;39.78
35878;BME280;21982;49.804;24.072;2023-05-16T10:19:13;97052.16;;;25.03;40.01
35878;BME280;21982;49.804;24.072;2023-05-16T10:21:41;97048.91;;;24.72;40.19
35878;BME280;21982;49.804;24.072;2023-05-16T10:24:11;97037.16;;;24.19;41.26
35878;BME280;21982;49.804;24.072;2023-05-16T10:26:37;96994.75;;;23.65;41.61
35878;BME280;21982;49.804;24.072;2023-05-16T10:29:03;97038.38;;;23.92;41.72
35878;BME280;21982;49.804;24.072;2023-05-16T10:31:29;96996.88;;;23.68;41.71
35878;BME280;21982;49.804;24.072;2023-05-16T10:33:56;96997.94;;;23.72;41.59
35878;BME280;21982;49.804;24.072;2023-05-16T10:36:22;97033.47;;;23.99;41.90
35878;BME280;21982;49.804;24.072;2023-05-16T10:38:49;97035.06;;;24.05;41.73
35878;BME280;21982;49.804;24.072;2023-05-16T10:41:15;96991.19;;;24.14;41.51
35878;BME280;21982;49.804;24.072;2023-05-16T10:43:43;96984.53;;;24.64;40.94
35878;BME280;21982;49.804;24.072;2023-05-16T10:46:09;97016.22;;;25.21;40.26
35878;BME280;21982;49.804;24.072;2023-05-16T10:48:37;97022.44;;;25.22;39.83
35878;BME280;21982;49.804;24.072;2023-05-16T10:51:32;96998.75;;;24.80;40.49
35878;BME280;21982;49.804;24.072;2023-05-16T10:53:54;97039.25;;;24.61;41.40
35878;BME280;21982;49.804;24.072;2023-05-16T10:56:26;97040.25;;;24.41;41.23
35878;BME280;21982;49.804;24.072;2023-05-16T10:58:52;97043.16;;;24.11;41.73
35878;BME280;21982;49.804;24.072;2023-05-16T11:01:23;97024.34;;;23.90;42.07
35878;BME280;21982;49.804;24.072;2023-05-16T11:06:43;97002.13;;;23.44;42.79
35878;BME280;21982;49.804;24.072;2023-05-16T11:12:00;97028.88;;;23.56;42.93
35878;BME280;21982;49.804;24.072;2023-05-16T11:17:13;97032.97;;;23.92;41.99
35878;BME280;21982;49.804;24.072;2023-05-16T11:19:47;97042.03;;;24.17;41.88
35878;BME280;21982;49.804;24.072;2023-05-16T11:22:25;97036.06;;;24.25;42.00
35878;BME280;21982;49.804;24.072;2023-05-16T11:25:04;97033.22;;;24.40;41.87
35878;BME280;21982;49.804;24.072;2023-05-16T11:27:41;97041.25;;;24.50;41.54
35878;BME280;21982;49.804;24.072;2023-05-16T11:30:11;97047.34;;;24.32;41.47
35878;BME280;21982;49.804;24.072;2023-05-16T11:32:38;97041.03;;;24.02;41.91
35878;BME280;21982;49.804;24.072;2023-05-16T11:35:06;97023.13;;;23.62;42.67
35878;BME280;21982;49.804;24.072;2023-05-16T11:37:33;97044.78;;;23.57;42.96
35878;BME280;21982;49.804;24.072;2023-05-16T11:40:01;96781.56;;;21.65;43.64
35878;BME280;21982;49.804;24.072;2023-05-16T11:42:35;97029.81;;;23.05;43.52
35878;BME280;21982;49.804;24.072;2023-05-16T11:47:38;97020.16;;;22.79;44.61
35878;BME280;21982;49.804;24.072;2023-05-16T11:50:15;97026.91;;;22.87;44.79
35878;BME280;21982;49.804;24.072;2023-05-16T11:52:49;97024.75;;;22.79;44.65
35878;BME280;21982;49.804;24.072;2023-05-16T11:55:19;96988.59;;;22.49;45.02
35878;BME280;21982;49.804;24.072;2023-05-16T11:57:49;97009.94;;;22.46;45.16
35878;BME280;21982;49.804;24.072;2023-05-16T12:00:16;97047.94;;;22.69;45.38
35878;BME280;21982;49.804;24.072;2023-05-16T12:05:09;97045.00;;;22.81;45.21
35878;BME280;21982;49.804;24.072;2023-05-16T12:07:35;97041.19;;;22.77;45.30
35878;BME280;21982;49.804;24.072;2023-05-16T12:10:07;97036.63;;;22.52;45.48
35878;BME280;21982;49.804;24.072;2023-05-16T12:12:34;97053.63;;;22.37;46.02
35878;BME280;21982;49.804;24.072;2023-05-16T12:15:01;97006.63;;;21.98;46.17
35878;BME280;21982;49.804;24.072;2023-05-16T12:17:28;97032.31;;;22.11;46.61
35878;BME280;21982;49.804;24.072;2023-05-16T12:19:53;97050.94;;;22.17;46.60
35878;BME280;21982;49.804;24.072;2023-05-16T12:22:19;97046.31;;;22.28;46.63
35878;BME280;21982;49.804;24.072;2023-05-16T12:24:44;97043.13;;;22.46;46.50
35878;BME280;21982;49.804;24.072;2023-05-16T12:27:10;97049.84;;;22.54;46.31
35878;BME280;21982;49.804;24.072;2023-05-16T12:29:36;96893.66;;;21.61;46.43
35878;BME280;21982;49.804;24.072;2023-05-16T12:32:12;97045.25;;;22.69;46.22
35878;BME280;21982;49.804;24.072;2023-05-16T12:34:37;97042.31;;;22.51;46.58
35878;BME280;21982;49.804;24.072;2023-05-16T12:37:03;96946.50;;;21.77;46.75
35878;BME280;21982;49.804;24.072;2023-05-16T12:39:36;97037.41;;;22.22;46.99
35878;BME280;21982;49.804;24.072;2023-05-16T12:42:04;96995.81;;;21.72;47.30
35878;BME280;21982;49.804;24.072;2023-05-16T12:44:31;96946.13;;;21.33;47.60
35878;BME280;21982;49.804;24.072;2023-05-16T12:46:58;97052.72;;;21.96;47.89
35878;BME280;21982;49.804;24.072;2023-05-16T12:49:23;97024.69;;;21.82;47.86
35878;BME280;21982;49.804;24.072;2023-05-16T12:51:50;97032.00;;;22.02;47.70
35878;BME280;21982;49.804;24.072;2023-05-16T12:54:16;96965.09;;;21.79;47.47
35878;BME280;21982;49.804;24.072;2023-05-16T12:56:41;97016.13;;;22.11;47.37
35878;BME280;21982;49.804;24.072;2023-05-16T12:59:08;97045.25;;;22.34;47.48
35878;BME280;21982;49.804;24.072;2023-05-16T13:01:34;97047.16;;;22.49;47.53
35878;BME280;21982;49.804;24.072;2023-05-16T13:04:00;97024.50;;;22.45;47.23
35878;BME280;21982;49.804;24.072;2023-05-16T13:06:26;97027.97;;;22.55;46.97
35878;BME280;21982;49.804;24.072;2023-05-16T13:11:27;97043.34;;;22.95;46.78
35878;BME280;21982;49.804;24.072;2023-05-16T13:13:54;97058.72;;;23.15;46.44
35878;BME280;21982;49.804;24.072;2023-05-16T13:16:19;97016.47;;;23.34;46.22